Latest Coastal Weather Observations for Laverton

IDV60701

Issued at 9:51 pm EDT Tuesday 17 January 2017 (issued every 10 minutes, with the page automatically refreshed every 10 minutes)

About coastal observations | Map of coastal stations | Coastal observations for VIC | Marine services | Other Formats
Station Details ID: 087031 Name: LAVERTON RAAF Lat: -37.86 Lon: 144.76 Height: 20.1 m
Data from the previous 72 hours. | See also: Recent months at Laverton
Date/Time
EDT
Temp
°C
Wind Pressure Rain since
9am
mm
Weather Cloud Vis
km
Sea
Height
m
Swell
Dir  Spd
kts
Gust
kts
hPa Trend Height
m
Period
s
Dir
17/09:30pm 22.9 S 11 19 1008.6 - 0.0 - - 10 - - - -
17/09:00pm 23.1 SSW 11 15 1007.3 - 0.0 - Cloudy 10 - - - -
17/08:30pm 23.4 SSW 14 19 1006.8 - 0.0 - - 10 - - - -
17/08:00pm 23.7 SSW 13 17 1006.0 - 0.0 - - 10 - - - -
17/07:30pm 24.1 SSW 14 18 1005.5 - 0.0 - - 10 - - - -
17/07:00pm 24.7 S 14 18 1004.9 - 0.0 - - 10 - - - -
17/06:30pm 28.9 SSE 11 16 1004.6 - 0.0 - - 10 - - - -
17/06:00pm 30.1 SSE 13 17 1004.3 - 0.0 - Partly cloudy 10 - - - -
17/05:30pm 31.3 SSE 16 23 1004.6 - 0.0 - - 10 - - - -
17/05:00pm 33.1 SE 14 19 1004.8 - 0.0 - - 10 - - - -
17/04:30pm 35.6 ESE 10 14 1004.4 - 0.0 - - 10 - - - -
17/04:00pm 34.6 ESE 9 13 1004.9 - 0.0 - - 10 - - - -
17/03:30pm 33.1 ESE 8 11 1005.5 - 0.0 - - 10 - - - -
17/03:00pm 33.8 SE 9 11 1006.0 - 0.0 - Mostly clear 10 - - - -
17/02:30pm 32.4 SE 9 12 1006.4 - 0.0 - - 10 - - - -
17/02:00pm 32.5 SE 9 11 1006.7 - 0.0 - - 10 - - - -
17/01:30pm 34.0 SE 10 14 1007.1 - 0.0 - - 10 - - - -
17/01:00pm 33.8 SSE 11 15 1007.4 - 0.0 - - 10 - - - -
17/12:30pm 30.9 S 12 15 1007.5 - 0.0 - - 10 - - - -
17/12:00pm 30.3 SSE 12 17 1007.1 - 0.0 - - 10 - - - -
17/11:30am 30.0 SSE 8 11 1007.4 - 0.0 - - 10 - - - -
17/11:00am 33.0 NNE 5 9 1007.7 - 0.0 - - 10 - - - -
17/10:30am 29.2 E 6 9 1008.0 - 0.0 - - 10 - - - -
17/10:00am 30.8 ENE 6 11 1008.4 - 0.0 - - 10 - - - -
17/09:30am 28.3 E 4 6 1009.0 - 0.0 - - 10 - - - -
17/09:00am 26.2 ESE 4 6 1008.9 - 0.0 - Mostly cloudy 10 - - - -
17/08:30am 23.8 CALM 0 0 1009.3 - 0.0 - - 10 - - - -
17/08:00am 22.6 E 3 4 1009.1 - 0.0 - - 10 - - - -
17/07:30am 21.0 CALM 0 0 1009.1 - 0.0 - - 10 - - - -
17/07:00am 19.8 CALM 0 3 1008.7 - 0.0 - - 10 - - - -
17/06:30am 19.6 CALM 0 0 1008.3 - 0.0 - - 10 - - - -
17/06:00am 20.2 SSW 7 13 1008.2 - 0.0 - Mostly clear 10 - - - -
17/05:30am 20.8 SW 3 6 1007.6 - 0.0 - - 10 - - - -
17/05:00am 23.2 W 6 7 1007.2 - 0.0 - - 10 - - - -
17/04:30am 24.8 NNW 8 11 1006.8 - 0.0 - - 10 - - - -
17/04:00am 23.1 NNW 7 10 1007.0 - 0.0 - - 10 - - - -
17/03:59am 23.0 NNW 7 10 1007.0 - 0.0 - - 10 - - - -
17/03:30am 17.9 NNW 3 4 1007.1 - 0.0 - - 10 - - - -
17/03:00am 17.8 NNW 5 5 1007.4 - 0.0 - - 10 - - - -
17/02:30am 18.5 NW 5 5 1007.7 - 0.0 - - 10 - - - -
17/02:00am 18.8 NNW 7 8 1007.9 - 0.0 - - 10 - - - -
17/01:30am 18.5 N 5 6 1008.3 - 0.0 - - 10 - - - -
17/01:00am 18.9 NNW 7 9 1008.5 - 0.0 - - 10 - - - -
17/12:30am 18.7 NW 6 8 1009.5 - 0.0 - - 10 - - - -
17/12:00am 20.5 NW 5 6 1009.5 - 0.0 - - 10 - - - -
 
Date/Time
EDT
Temp
°C
Wind Pressure Rain since
9am
mm
Weather Cloud Vis
km
Sea
Height
m
Swell
Dir  Spd
kts
Gust
kts
hPa Trend Height
m
Period
s
Dir
16/11:30pm 21.1 SW 5 6 1010.1 - 0.0 - - 10 - - - -
16/11:00pm 22.0 SW 7 9 1010.1 - 0.0 - - 10 - - - -
16/10:30pm 23.2 SSW 5 7 1010.0 - 0.0 - - 10 - - - -
16/10:00pm 23.9 SSW 5 7 1010.0 - 0.0 - - 10 - - - -
16/09:30pm 24.4 SSE 5 7 1010.1 - 0.0 - - 10 - - - -
16/09:00pm 24.9 SSE 5 8 1010.0 - 0.0 - - 10 - - - -
16/08:30pm 25.8 SSE 5 7 1010.0 - 0.0 - - 10 - - - -
16/08:00pm 26.8 SSE 6 9 1010.0 - 0.0 - - 10 - - - -
16/07:30pm 26.9 S 9 12 1010.0 - 0.0 - - 10 - - - -
16/07:00pm 28.0 S 9 12 1009.8 - 0.0 - - 10 - - - -
16/06:30pm 29.1 SSE 11 14 1009.6 - 0.0 - - 10 - - - -
16/06:00pm 29.3 SE 10 14 1009.6 - 0.0 - - 10 - - - -
16/05:30pm 28.3 SE 11 16 1009.9 - 0.0 - - 10 - - - -
16/05:00pm 29.0 SE 10 13 1010.1 - 0.0 - - 10 - - - -
16/04:30pm 28.7 SE 10 12 1010.4 - 0.0 - - 10 - - - -
16/04:00pm 28.7 SE 9 12 1010.9 - 0.0 - - 10 - - - -
16/03:30pm 27.8 SE 11 14 1011.4 - 0.0 - - 10 - - - -
16/03:00pm 26.7 SE 11 15 1011.8 - 0.0 - - 10 - - - -
16/02:30pm 27.3 SE 11 15 1012.2 - 0.0 - - 10 - - - -
16/02:00pm 27.0 SE 11 15 1012.6 - 0.0 - - 10 - - - -
16/01:30pm 25.7 SE 11 14 1013.1 - 0.0 - - 10 - - - -
16/01:00pm 25.5 SE 9 13 1013.6 - 0.0 - - 10 - - - -
16/12:30pm 24.9 SE 7 10 1013.8 - 0.0 - - 10 - - - -
16/12:00pm 22.6 ESE 7 10 1014.2 - 0.0 - - 10 - - - -
16/11:30am 22.0 E 7 10 1014.6 - 0.0 - - 10 - - - -
16/11:00am 21.4 SE 6 9 1015.2 - 0.0 - - 10 - - - -
16/10:30am 20.9 NE 5 9 1015.6 - 0.0 - - 10 - - - -
16/10:00am 19.4 NNE 5 9 1015.5 - 0.0 - - 10 - - - -
16/09:30am 18.9 ENE 6 9 1015.6 - 0.0 - - 10 - - - -
16/09:00am 18.0 ENE 5 9 1015.9 - 0.0 - - 10 - - - -
16/08:30am 16.9 NNE 5 6 1016.2 - 0.0 - - 10 - - - -
16/08:00am 16.0 N 5 7 1016.3 - 0.0 - - 10 - - - -
16/07:30am 15.4 N 4 5 1016.1 - 0.0 - - 10 - - - -
16/07:00am 14.5 NNE 5 6 1016.0 - 0.0 - Partly cloudy 10 - - - -
16/06:30am 14.7 NNE 4 5 1015.8 - 0.0 - Cloudy 10 - - - -
16/06:00am 15.0 NNE 4 5 1015.7 - 0.0 - Cloudy 10 - - - -
16/05:30am 15.2 NNE 4 5 1015.7 - 0.0 - Cloudy 10 - - - -
16/05:00am 15.3 NE 5 7 1015.5 - 0.0 - Cloudy 10 - - - -
16/04:30am 15.3 NE 5 7 1015.4 - 0.0 - Cloudy 10 - - - -
16/04:00am 15.3 NE 3 7 1015.3 - 0.0 - Cloudy 10 - - - -
16/03:30am 14.8 N 4 6 1015.3 - 0.0 - Cloudy 10 - - - -
16/03:00am 14.4 NNW 5 7 1015.7 - 0.0 - Cloudy 10 - - - -
16/02:30am 14.7 SSE 3 5 1015.7 - 0.0 - Cloudy 10 - - - -
16/02:00am 14.4 CALM 0 0 1016.1 - 0.0 - Cloudy 10 - - - -
16/01:30am 14.0 SW 1 3 1016.3 - 0.0 - Cloudy 10 - - - -
16/01:00am 14.1 SW 3 4 1016.7 - 0.0 - Partly cloudy 10 - - - -
16/12:30am 14.3 SW 3 4 1016.8 - 0.0 - - 10 - - - -
16/12:00am 14.4 SW 4 5 1017.1 - 0.0 - - 10 - - - -
 
Date/Time
EDT
Temp
°C
Wind Pressure Rain since
9am
mm
Weather Cloud Vis
km
Sea
Height
m
Swell
Dir  Spd
kts
Gust
kts
hPa Trend Height
m
Period
s
Dir
15/11:30pm 15.1 S 4 5 1017.3 - 0.0 - - 10 - - - -
15/11:00pm 15.4 S 4 6 1017.4 - 0.0 - - 10 - - - -
15/10:30pm 15.5 S 4 6 1017.5 - 0.0 - - 10 - - - -
15/10:00pm 15.8 SSE 5 6 1017.7 - 0.0 - - 10 - - - -
15/09:30pm 16.1 S 7 9 1017.8 - 0.0 - - 10 - - - -
15/09:00pm 16.3 S 8 11 1017.8 - 0.0 - - 10 - - - -
15/08:30pm 16.8 S 9 12 1017.8 - 0.0 - - 10 - - - -
15/08:00pm 17.6 S 10 12 1017.5 - 0.0 - - 10 - - - -
15/07:30pm 18.4 S 10 14 1017.4 - 0.0 - - 10 - - - -
15/07:00pm 18.6 S 10 14 1017.4 - 0.0 - - 10 - - - -
15/06:30pm 18.4 SSE 11 15 1017.5 - 0.0 - Partly cloudy 10 - - - -
15/06:00pm 19.1 SSE 12 18 1017.5 - 0.0 - - 10 - - - -
15/05:30pm 19.4 SSE 11 17 1017.5 - 0.0 - - 10 - - - -
15/05:00pm 20.1 SSE 11 16 1017.5 - 0.0 - - 10 - - - -
15/04:30pm 19.7 SE 12 17 1017.7 - 0.0 - - 10 - - - -
15/04:00pm 19.6 ESE 11 15 1017.8 - 0.0 - - 10 - - - -
15/03:30pm 20.3 SSE 11 14 1017.8 - 0.0 - - 10 - - - -
15/03:00pm 20.7 SE 10 16 1017.9 - 0.0 - - 10 - - - -
15/02:30pm 20.2 SSE 10 17 1018.2 - 0.0 - - 10 - - - -
15/02:00pm 21.3 SSE 8 13 1018.3 - 0.0 - - 10 - - - -
15/01:30pm 20.6 SSE 8 13 1018.4 - 0.0 - Partly cloudy 10 - - - -
15/01:00pm 20.6 S 8 13 1018.8 - 0.0 - Partly cloudy 10 - - - -
15/12:30pm 19.9 SSW 7 12 1018.9 - 0.0 - Partly cloudy 10 - - - -
15/12:00pm 19.1 SE 7 15 1018.8 - 0.0 - Partly cloudy 10 - - - -
15/11:30am 18.6 SSE 5 9 1018.9 - 0.0 - Cloudy 10 - - - -
15/11:00am 17.8 SSE 5 9 1018.9 - 0.0 - Cloudy 10 - - - -
15/10:30am 17.5 SSE 5 8 1019.1 - 0.0 - Cloudy 10 - - - -
15/10:00am 17.0 SW 6 11 1019.3 - 0.0 - Cloudy 10 - - - -
15/09:30am 16.5 W 7 9 1019.0 - 0.0 - Cloudy 10 - - - -
15/09:00am 16.0 W 7 9 1019.0 - 0.0 - Cloudy 10 - - - -
15/08:30am 15.6 WSW 7 10 1018.8 - 0.0 - Cloudy 10 - - - -
15/08:00am 15.2 WSW 9 11 1018.5 - 0.0 - Cloudy 10 - - - -
15/07:30am 14.9 WSW 8 13 1018.2 - 0.0 - Cloudy 10 - - - -
15/07:00am 14.8 WSW 6 8 1017.9 - 0.0 - Cloudy 10 - - - -
15/06:30am 14.7 WSW 8 11 1017.7 - 0.0 - Cloudy 10 - - - -
15/06:00am 14.7 WSW 7 11 1017.7 - 0.0 - Cloudy 10 - - - -
15/05:30am 14.5 W 6 9 1017.2 - 0.0 - Cloudy 10 - - - -
15/05:00am 14.2 W 5 8 1016.9 - 0.0 - Cloudy 10 - - - -
15/04:30am 14.1 W 7 10 1016.8 - 0.0 - Cloudy 10 - - - -
15/04:00am 14.1 W 9 12 1016.5 - 0.0 - Cloudy 10 - - - -
15/03:30am 14.2 WSW 9 12 1016.3 - 0.0 - Partly cloudy 10 - - - -
15/03:00am 14.5 WSW 9 13 1016.2 - 0.0 - Cloudy 10 - - - -
15/02:30am 14.2 W 6 9 1016.3 - 0.0 - Cloudy 10 - - - -
15/02:00am 13.7 W 7 9 1016.6 - 0.0 - Partly cloudy 10 - - - -
15/01:30am 13.7 WSW 7 9 1016.7 - 0.0 - - 10 - - - -
15/01:00am 14.1 WSW 7 11 1016.7 - 0.0 - - 10 - - - -
15/12:30am 14.5 WSW 8 11 1016.6 - 0.0 - - 10 - - - -
15/12:00am 15.0 SW 10 14 1016.6 - 0.0 - - 10 - - - -
 
Date/Time
EDT
Temp
°C
Wind Pressure Rain since
9am
mm
Weather Cloud Vis
km
Sea
Height
m
Swell
Dir  Spd
kts
Gust
kts
hPa Trend Height
m
Period
s
Dir
14/11:30pm 15.1 SW 11 15 1016.3 - 0.0 - - 10 - - - -
14/11:00pm 15.2 SW 8 12 1016.3 - 0.0 - - 10 - - - -
14/10:30pm 15.5 SW 9 13 1016.1 - 0.0 - - 10 - - - -
14/10:00pm 16.3 SW 11 17 1015.8 - 0.0 - - 10 - - - -

Other Formats:

Comma delimited format used in spreadsheet applications
http://www.bom.gov.au/fwo/IDV60701/IDV60701.94865.axf

JavaScript Object Notation format (JSON) in row-major order
http://www.bom.gov.au/fwo/IDV60701/IDV60701.94865.json